Share

Al, Norway

Aal i Hallingdal (IBUSKERU46) Elev 1575 ft | 60.62 °N, 8.52 °E | Change Station

Current weather conditions updated 8 minutes ago

Clear
Clear
54.3 °F
Feels Like 54.3 °F
N
2.0
Wind Variable Wind from SE
Gusts 3.0 mph
Sunrise 5:49 AM
Sunset 9:00 PM
Moon Waning Gibbous

Today is forecast to be nearly the same temperature as yesterday.

Pressure 30.18 in
Visibility -9999.0 miles
Clouds
Dew Point 33 °F
Humidity 44%
Rainfall 0.00 in
Snow Depth Not available.
UV Not available.
Pollen Not available.
Air Quality Not available.
Flu Activity Not available.
METAR ENSG 210850Z 06006KT CAVOK 08/M03 Q1022 RMK

More Conditions Fewer Conditions

Pressure 30.18 in
Visibility -9999.0 miles
Clouds
Dew Point 33 °F
Humidity 44%
Rainfall 0.00 in
Snow Depth Not available.
UV Not available.
Pollen Not available.
Air Quality Not available.
Flu Activity Not available.
METAR ENSG 210850Z 06006KT CAVOK 08/M03 Q1022 RMK

More Conditions Fewer Conditions

10-Day Weather Forecast

Almanac

Astronomy

Apr. 21, 2014 Rise Set
Actual Time 5:49 AM CEST 9:00 PM CEST
Civil Twilight 5:00 AM CEST 9:50 PM CEST
Nautical Twilight 3:50 AM CEST 11:01 PM CEST
Astronomical Twilight 1:57 AM CEST 12:51 AM CEST
Moon 2:45 AM CEST 10:31 AM CEST
Length of Visible Light 16h 50m
Length of Day
15h 11m
Tomorrow will be 5m 31s longer.
Waning Gibbous, 60% of the Moon is Illuminated
Today
Waning Gibbous
Apr 22
Last Quarter
Apr 29
New
May 6
First Quarter
May 14
Full

Yesterday's Extremes

Country Highs Country Lows

Community

  • Snowy Robin
    Snowy Robin
  • Sun Pillar and Geese
    Sun Pillar and Geese
  • Showers on the Way
    Showers on the Way
  • Easter Morning Fog
    Easter Morning Fog
  • Easter Dance
    Easter Dance

WunderPhotos

Upload Photos

1,703,579 photos uploaded!

WunderBlogs® & News

Nearby

Snow Depth

Not available.

Coastal Water Temperatures

Place Temperature
No Stations Reporting

Earthquake Activity

City Distance Mag. Time & Date
No recent earthquake activity has been reported nearby.
Minimum magnitude displayed is 2.5.

Nearby Weather Stations

Station Location Temp. Windchill Dew Point Humidity Wind Precip. Elev Updated Type
Aal i Hallingdal, Aal 54.3 °F - 33 °F 44% SE  at  2.0 mph 0.00 in / hr 1575 ft 11:45 AM CEST Normal
Aal Skisenter bunnstasjon, Aal 52.7 °F - 26 °F 36% North  at  0.0 mph 0.00 in / hr 2165 ft 11:53 AM CEST Rapid Fire
Leveld 52.2 °F - 28 °F 39% North  at  9.0 mph 0.00 in / hr 3084 ft 11:52 AM CEST Normal
Storefjell Resort 1001 m.o.h., GOL 46.0 °F 46 °F 46 °F 100% WSW  at  2.0 mph 0.00 in / hr 2979 ft 11:50 AM CEST Normal

Show More Stations Show Fewer Stations

What do you think?

We're not finished. Please let us know what you like, what you don't like, and what you are still missing.